sensor_id;sensor_type;location;lat;lon;timestamp;temperature;humidity
45849;DHT22;31567;54.600;9.842;2023-10-08T00:02:42;12.10;99.30
45849;DHT22;31567;54.600;9.842;2023-10-08T00:06:22;12.10;99.20
45849;DHT22;31567;54.600;9.842;2023-10-08T00:10:02;12.00;99.00
45849;DHT22;31567;54.600;9.842;2023-10-08T00:13:43;12.10;99.00
45849;DHT22;31567;54.600;9.842;2023-10-08T00:17:23;12.10;99.00
45849;DHT22;31567;54.600;9.842;2023-10-08T00:21:05;12.10;99.00
45849;DHT22;31567;54.600;9.842;2023-10-08T00:24:51;12.10;99.00
45849;DHT22;31567;54.600;9.842;2023-10-08T00:28:37;12.10;99.00
45849;DHT22;31567;54.600;9.842;2023-10-08T00:32:16;12.10;99.00
45849;DHT22;31567;54.600;9.842;2023-10-08T00:35:56;12.10;99.10
45849;DHT22;31567;54.600;9.842;2023-10-08T00:39:36;12.00;99.00
45849;DHT22;31567;54.600;9.842;2023-10-08T00:43:34;12.00;98.90
45849;DHT22;31567;54.600;9.842;2023-10-08T00:47:16;12.00;98.90
45849;DHT22;31567;54.600;9.842;2023-10-08T00:50:56;12.00;98.80
45849;DHT22;31567;54.600;9.842;2023-10-08T00:54:54;11.90;98.70
45849;DHT22;31567;54.600;9.842;2023-10-08T00:58:44;11.90;98.70
45849;DHT22;31567;54.600;9.842;2023-10-08T01:02:31;11.90;98.70
45849;DHT22;31567;54.600;9.842;2023-10-08T01:06:26;11.90;98.70
45849;DHT22;31567;54.600;9.842;2023-10-08T01:10:09;11.90;98.70
45849;DHT22;31567;54.600;9.842;2023-10-08T01:13:50;12.00;98.70
45849;DHT22;31567;54.600;9.842;2023-10-08T01:17:29;11.90;98.70
45849;DHT22;31567;54.600;9.842;2023-10-08T01:21:11;11.90;98.70
45849;DHT22;31567;54.600;9.842;2023-10-08T01:24:57;12.00;98.60
45849;DHT22;31567;54.600;9.842;2023-10-08T01:28:40;12.00;98.60
45849;DHT22;31567;54.600;9.842;2023-10-08T01:32:23;12.00;98.60
45849;DHT22;31567;54.600;9.842;2023-10-08T01:36:02;12.00;98.50
45849;DHT22;31567;54.600;9.842;2023-10-08T01:39:47;12.00;98.40
45849;DHT22;31567;54.600;9.842;2023-10-08T01:43:29;12.00;98.40
45849;DHT22;31567;54.600;9.842;2023-10-08T01:47:09;12.00;98.50
45849;DHT22;31567;54.600;9.842;2023-10-08T01:50:57;11.90;98.50
45849;DHT22;31567;54.600;9.842;2023-10-08T01:54:40;11.90;98.70
45849;DHT22;31567;54.600;9.842;2023-10-08T01:58:20;11.90;98.70
45849;DHT22;31567;54.600;9.842;2023-10-08T02:02:01;11.80;98.80
45849;DHT22;31567;54.600;9.842;2023-10-08T02:05:45;11.80;98.90
45849;DHT22;31567;54.600;9.842;2023-10-08T02:09:25;11.80;99.00
45849;DHT22;31567;54.600;9.842;2023-10-08T02:13:05;11.80;99.00
45849;DHT22;31567;54.600;9.842;2023-10-08T02:16:49;11.70;99.00
45849;DHT22;31567;54.600;9.842;2023-10-08T02:20:29;11.70;99.00
45849;DHT22;31567;54.600;9.842;2023-10-08T02:24:09;11.70;99.00
45849;DHT22;31567;54.600;9.842;2023-10-08T02:27:50;11.60;99.00
45849;DHT22;31567;54.600;9.842;2023-10-08T02:31:30;11.60;99.00
45849;DHT22;31567;54.600;9.842;2023-10-08T02:35:10;11.60;99.00
45849;DHT22;31567;54.600;9.842;2023-10-08T02:38:53;11.60;99.00
45849;DHT22;31567;54.600;9.842;2023-10-08T02:42:34;11.60;99.00
45849;DHT22;31567;54.600;9.842;2023-10-08T02:46:13;11.50;99.00
45849;DHT22;31567;54.600;9.842;2023-10-08T02:49:54;11.40;99.00
45849;DHT22;31567;54.600;9.842;2023-10-08T02:53:34;11.40;99.10
45849;DHT22;31567;54.600;9.842;2023-10-08T02:57:14;11.40;99.10
45849;DHT22;31567;54.600;9.842;2023-10-08T03:00:54;11.30;99.20
45849;DHT22;31567;54.600;9.842;2023-10-08T03:04:33;11.20;99.20
45849;DHT22;31567;54.600;9.842;2023-10-08T03:08:16;11.10;99.30
45849;DHT22;31567;54.600;9.842;2023-10-08T03:11:59;11.10;99.40
45849;DHT22;31567;54.600;9.842;2023-10-08T03:15:42;11.00;99.40
45849;DHT22;31567;54.600;9.842;2023-10-08T03:19:40;10.90;99.50
45849;DHT22;31567;54.600;9.842;2023-10-08T03:23:24;10.80;99.60
45849;DHT22;31567;54.600;9.842;2023-10-08T03:27:15;10.70;99.70
45849;DHT22;31567;54.600;9.842;2023-10-08T03:30:59;10.80;99.80
45849;DHT22;31567;54.600;9.842;2023-10-08T03:34:46;10.70;99.80
45849;DHT22;31567;54.600;9.842;2023-10-08T03:38:27;10.70;99.70
45849;DHT22;31567;54.600;9.842;2023-10-08T03:42:29;10.60;99.80
45849;DHT22;31567;54.600;9.842;2023-10-08T03:46:13;10.60;99.80
45849;DHT22;31567;54.600;9.842;2023-10-08T03:49:56;10.60;99.90
45849;DHT22;31567;54.600;9.842;2023-10-08T03:53:35;10.60;99.80
45849;DHT22;31567;54.600;9.842;2023-10-08T03:57:23;10.60;99.80
45849;DHT22;31567;54.600;9.842;2023-10-08T04:01:22;10.50;99.80
45849;DHT22;31567;54.600;9.842;2023-10-08T04:05:03;10.50;99.80
45849;DHT22;31567;54.600;9.842;2023-10-08T04:08:59;10.50;99.70
45849;DHT22;31567;54.600;9.842;2023-10-08T04:12:48;10.50;99.70
45849;DHT22;31567;54.600;9.842;2023-10-08T04:16:31;10.40;99.70
45849;DHT22;31567;54.600;9.842;2023-10-08T04:20:16;10.50;99.70
45849;DHT22;31567;54.600;9.842;2023-10-08T04:24:14;10.40;99.70
45849;DHT22;31567;54.600;9.842;2023-10-08T04:27:55;10.40;99.80
45849;DHT22;31567;54.600;9.842;2023-10-08T04:31:37;10.40;99.90
45849;DHT22;31567;54.600;9.842;2023-10-08T04:35:17;10.30;99.80
45849;DHT22;31567;54.600;9.842;2023-10-08T04:38:57;10.30;99.90
45849;DHT22;31567;54.600;9.842;2023-10-08T04:42:43;10.30;99.90
45849;DHT22;31567;54.600;9.842;2023-10-08T04:46:27;10.30;99.90
45849;DHT22;31567;54.600;9.842;2023-10-08T04:50:25;10.20;99.90
45849;DHT22;31567;54.600;9.842;2023-10-08T04:54:11;10.10;99.90
45849;DHT22;31567;54.600;9.842;2023-10-08T04:57:56;10.10;99.90
45849;DHT22;31567;54.600;9.842;2023-10-08T05:01:35;10.10;99.90
45849;DHT22;31567;54.600;9.842;2023-10-08T05:05:26;10.10;99.90
45849;DHT22;31567;54.600;9.842;2023-10-08T05:09:17;10.00;99.90
45849;DHT22;31567;54.600;9.842;2023-10-08T05:13:00;10.00;99.90
45849;DHT22;31567;54.600;9.842;2023-10-08T05:16:42;9.90;99.90
45849;DHT22;31567;54.600;9.842;2023-10-08T05:20:40;9.80;99.90
45849;DHT22;31567;54.600;9.842;2023-10-08T05:24:20;9.80;99.90
45849;DHT22;31567;54.600;9.842;2023-10-08T05:28:07;9.70;99.90
45849;DHT22;31567;54.600;9.842;2023-10-08T05:31:50;9.70;99.90
45849;DHT22;31567;54.600;9.842;2023-10-08T05:35:50;9.70;99.90
45849;DHT22;31567;54.600;9.842;2023-10-08T05:39:33;9.70;99.90
45849;DHT22;31567;54.600;9.842;2023-10-08T05:43:20;9.70;99.90
45849;DHT22;31567;54.600;9.842;2023-10-08T05:47:22;9.60;99.90
45849;DHT22;31567;54.600;9.842;2023-10-08T05:51:17;9.50;99.90
45849;DHT22;31567;54.600;9.842;2023-10-08T05:55:15;9.50;99.90
45849;DHT22;31567;54.600;9.842;2023-10-08T05:59:01;9.50;99.90
45849;DHT22;31567;54.600;9.842;2023-10-08T06:02:54;9.50;99.90
45849;DHT22;31567;54.600;9.842;2023-10-08T06:06:48;9.50;99.90
45849;DHT22;31567;54.600;9.842;2023-10-08T06:10:48;9.50;99.90
45849;DHT22;31567;54.600;9.842;2023-10-08T06:14:36;9.50;99.90
45849;DHT22;31567;54.600;9.842;2023-10-08T06:18:35;9.50;99.90
45849;DHT22;31567;54.600;9.842;2023-10-08T06:22:14;9.50;99.90
45849;DHT22;31567;54.600;9.842;2023-10-08T06:25:54;9.60;99.90
45849;DHT22;31567;54.600;9.842;2023-10-08T06:29:37;9.70;99.90
45849;DHT22;31567;54.600;9.842;2023-10-08T06:33:24;9.80;99.90
45849;DHT22;31567;54.600;9.842;2023-10-08T06:37:06;9.80;99.90
45849;DHT22;31567;54.600;9.842;2023-10-08T06:40:47;9.90;99.90
45849;DHT22;31567;54.600;9.842;2023-10-08T06:44:27;10.00;99.90
45849;DHT22;31567;54.600;9.842;2023-10-08T06:48:07;10.00;99.90
45849;DHT22;31567;54.600;9.842;2023-10-08T06:51:47;10.10;99.90
45849;DHT22;31567;54.600;9.842;2023-10-08T06:55:27;10.20;99.90
45849;DHT22;31567;54.600;9.842;2023-10-08T06:59:07;10.30;99.90
45849;DHT22;31567;54.600;9.842;2023-10-08T07:02:48;10.40;99.90
45849;DHT22;31567;54.600;9.842;2023-10-08T07:06:28;10.50;99.90
45849;DHT22;31567;54.600;9.842;2023-10-08T07:10:10;10.60;99.90
45849;DHT22;31567;54.600;9.842;2023-10-08T07:13:50;10.70;99.90
45849;DHT22;31567;54.600;9.842;2023-10-08T07:17:31;10.80;99.90
45849;DHT22;31567;54.600;9.842;2023-10-08T07:21:19;11.00;99.90
45849;DHT22;31567;54.600;9.842;2023-10-08T07:25:08;11.10;99.90
45849;DHT22;31567;54.600;9.842;2023-10-08T07:28:48;11.30;99.90
45849;DHT22;31567;54.600;9.842;2023-10-08T07:32:29;11.40;99.90
45849;DHT22;31567;54.600;9.842;2023-10-08T07:36:13;11.50;99.90
45849;DHT22;31567;54.600;9.842;2023-10-08T07:39:53;11.70;99.90
45849;DHT22;31567;54.600;9.842;2023-10-08T07:43:34;11.80;99.90
45849;DHT22;31567;54.600;9.842;2023-10-08T07:47:14;12.00;99.90
45849;DHT22;31567;54.600;9.842;2023-10-08T07:50:54;12.10;99.90
45849;DHT22;31567;54.600;9.842;2023-10-08T07:54:35;12.20;99.90
45849;DHT22;31567;54.600;9.842;2023-10-08T07:58:15;12.40;99.90
45849;DHT22;31567;54.600;9.842;2023-10-08T08:01:55;12.50;99.90
45849;DHT22;31567;54.600;9.842;2023-10-08T08:05:34;12.60;99.90
45849;DHT22;31567;54.600;9.842;2023-10-08T08:09:14;12.70;99.90
45849;DHT22;31567;54.600;9.842;2023-10-08T08:12:58;12.80;99.90
45849;DHT22;31567;54.600;9.842;2023-10-08T08:16:38;12.90;99.90
45849;DHT22;31567;54.600;9.842;2023-10-08T08:20:17;13.00;99.90
45849;DHT22;31567;54.600;9.842;2023-10-08T08:23:57;13.10;99.90
45849;DHT22;31567;54.600;9.842;2023-10-08T08:27:44;13.20;99.90
45849;DHT22;31567;54.600;9.842;2023-10-08T08:31:27;13.30;99.90
45849;DHT22;31567;54.600;9.842;2023-10-08T08:35:07;13.40;99.90
45849;DHT22;31567;54.600;9.842;2023-10-08T08:38:48;13.50;99.90
45849;DHT22;31567;54.600;9.842;2023-10-08T08:42:28;13.70;99.90
45849;DHT22;31567;54.600;9.842;2023-10-08T08:46:10;13.70;99.90
45849;DHT22;31567;54.600;9.842;2023-10-08T08:49:52;13.70;98.70
45849;DHT22;31567;54.600;9.842;2023-10-08T08:53:37;13.80;98.00
45849;DHT22;31567;54.600;9.842;2023-10-08T08:57:18;13.90;97.20
45849;DHT22;31567;54.600;9.842;2023-10-08T09:00:57;14.00;96.80
45849;DHT22;31567;54.600;9.842;2023-10-08T09:04:38;14.00;95.90
45849;DHT22;31567;54.600;9.842;2023-10-08T09:08:18;14.00;95.50
45849;DHT22;31567;54.600;9.842;2023-10-08T09:11:58;14.10;94.60
45849;DHT22;31567;54.600;9.842;2023-10-08T09:15:38;14.00;93.60
45849;DHT22;31567;54.600;9.842;2023-10-08T09:19:18;14.10;93.20
45849;DHT22;31567;54.600;9.842;2023-10-08T09:23:16;14.20;92.70
45849;DHT22;31567;54.600;9.842;2023-10-08T09:26:56;14.20;92.70
45849;DHT22;31567;54.600;9.842;2023-10-08T09:30:37;14.30;92.70
45849;DHT22;31567;54.600;9.842;2023-10-08T09:34:17;14.40;92.60
45849;DHT22;31567;54.600;9.842;2023-10-08T09:37:57;14.50;91.90
45849;DHT22;31567;54.600;9.842;2023-10-08T09:41:38;14.60;90.90
45849;DHT22;31567;54.600;9.842;2023-10-08T09:45:21;14.80;90.40
45849;DHT22;31567;54.600;9.842;2023-10-08T09:49:01;14.80;90.30
45849;DHT22;31567;54.600;9.842;2023-10-08T09:53:00;14.90;89.40
45849;DHT22;31567;54.600;9.842;2023-10-08T09:56:41;15.00;89.10
45849;DHT22;31567;54.600;9.842;2023-10-08T10:00:24;14.90;88.40
45849;DHT22;31567;54.600;9.842;2023-10-08T10:04:11;14.90;89.10
45849;DHT22;31567;54.600;9.842;2023-10-08T10:07:55;14.90;88.80
45849;DHT22;31567;54.600;9.842;2023-10-08T10:11:36;14.90;89.80
45849;DHT22;31567;54.600;9.842;2023-10-08T10:15:15;15.00;90.50
45849;DHT22;31567;54.600;9.842;2023-10-08T10:18:59;15.10;90.60
45849;DHT22;31567;54.600;9.842;2023-10-08T10:22:40;15.10;90.10
45849;DHT22;31567;54.600;9.842;2023-10-08T10:26:25;15.20;89.60
45849;DHT22;31567;54.600;9.842;2023-10-08T10:30:06;15.20;88.50
45849;DHT22;31567;54.600;9.842;2023-10-08T10:33:48;15.20;89.40
45849;DHT22;31567;54.600;9.842;2023-10-08T10:37:28;15.30;89.20
45849;DHT22;31567;54.600;9.842;2023-10-08T10:41:20;15.20;88.10
45849;DHT22;31567;54.600;9.842;2023-10-08T10:45:01;15.20;86.80
45849;DHT22;31567;54.600;9.842;2023-10-08T10:48:48;15.20;87.50
45849;DHT22;31567;54.600;9.842;2023-10-08T10:52:57;15.20;86.80
45849;DHT22;31567;54.600;9.842;2023-10-08T10:56:37;15.20;86.70
45849;DHT22;31567;54.600;9.842;2023-10-08T11:00:26;15.30;88.20
45849;DHT22;31567;54.600;9.842;2023-10-08T11:04:08;15.40;89.60
45849;DHT22;31567;54.600;9.842;2023-10-08T11:07:55;15.40;90.60
45849;DHT22;31567;54.600;9.842;2023-10-08T11:11:44;15.60;91.50
45849;DHT22;31567;54.600;9.842;2023-10-08T11:15:25;15.60;91.90
45849;DHT22;31567;54.600;9.842;2023-10-08T11:19:19;15.70;91.80
45849;DHT22;31567;54.600;9.842;2023-10-08T11:22:59;15.70;90.80
45849;DHT22;31567;54.600;9.842;2023-10-08T11:26:57;15.70;90.10
45849;DHT22;31567;54.600;9.842;2023-10-08T11:30:55;15.70;89.60
45849;DHT22;31567;54.600;9.842;2023-10-08T11:34:41;15.70;88.50
45849;DHT22;31567;54.600;9.842;2023-10-08T11:38:20;15.70;87.70
45849;DHT22;31567;54.600;9.842;2023-10-08T11:42:03;15.90;88.80
45849;DHT22;31567;54.600;9.842;2023-10-08T11:45:43;15.90;89.70
45849;DHT22;31567;54.600;9.842;2023-10-08T11:49:27;15.90;88.70
45849;DHT22;31567;54.600;9.842;2023-10-08T11:53:11;15.90;88.00
45849;DHT22;31567;54.600;9.842;2023-10-08T11:56:51;16.20;87.60
45849;DHT22;31567;54.600;9.842;2023-10-08T12:00:30;16.40;88.10
45849;DHT22;31567;54.600;9.842;2023-10-08T12:04:10;16.60;85.90
45849;DHT22;31567;54.600;9.842;2023-10-08T12:07:54;16.80;84.00
45849;DHT22;31567;54.600;9.842;2023-10-08T12:11:37;16.90;84.90
45849;DHT22;31567;54.600;9.842;2023-10-08T12:15:18;16.90;85.80
45849;DHT22;31567;54.600;9.842;2023-10-08T12:18:59;16.80;85.50
45849;DHT22;31567;54.600;9.842;2023-10-08T12:22:38;16.70;85.40
45849;DHT22;31567;54.600;9.842;2023-10-08T12:26:18;16.60;84.60
45849;DHT22;31567;54.600;9.842;2023-10-08T12:30:00;16.60;83.90
45849;DHT22;31567;54.600;9.842;2023-10-08T12:33:40;16.40;82.00
45849;DHT22;31567;54.600;9.842;2023-10-08T12:37:19;16.40;84.20
45849;DHT22;31567;54.600;9.842;2023-10-08T12:40:59;16.40;83.60
45849;DHT22;31567;54.600;9.842;2023-10-08T12:44:47;16.40;82.20
45849;DHT22;31567;54.600;9.842;2023-10-08T12:48:28;16.40;82.10
45849;DHT22;31567;54.600;9.842;2023-10-08T12:52:07;16.40;83.60
45849;DHT22;31567;54.600;9.842;2023-10-08T12:55:48;16.40;84.00
45849;DHT22;31567;54.600;9.842;2023-10-08T12:59:32;16.50;83.10
45849;DHT22;31567;54.600;9.842;2023-10-08T13:03:12;16.50;83.10
45849;DHT22;31567;54.600;9.842;2023-10-08T13:06:55;16.50;81.90
45849;DHT22;31567;54.600;9.842;2023-10-08T13:10:36;16.50;83.00
45849;DHT22;31567;54.600;9.842;2023-10-08T13:14:20;16.50;83.50
45849;DHT22;31567;54.600;9.842;2023-10-08T13:18:02;16.40;83.10
45849;DHT22;31567;54.600;9.842;2023-10-08T13:21:44;16.40;82.30
45849;DHT22;31567;54.600;9.842;2023-10-08T13:25:24;16.40;83.30
45849;DHT22;31567;54.600;9.842;2023-10-08T13:29:05;16.30;84.70
45849;DHT22;31567;54.600;9.842;2023-10-08T13:32:45;16.30;83.00
45849;DHT22;31567;54.600;9.842;2023-10-08T13:36:24;16.20;81.40
45849;DHT22;31567;54.600;9.842;2023-10-08T13:40:05;16.20;79.80
45849;DHT22;31567;54.600;9.842;2023-10-08T13:43:49;16.20;79.70
45849;DHT22;31567;54.600;9.842;2023-10-08T13:47:30;16.10;80.70
45849;DHT22;31567;54.600;9.842;2023-10-08T13:51:13;16.20;80.40
45849;DHT22;31567;54.600;9.842;2023-10-08T13:54:59;16.10;79.50
45849;DHT22;31567;54.600;9.842;2023-10-08T13:58:39;16.10;80.00
45849;DHT22;31567;54.600;9.842;2023-10-08T14:02:25;16.00;81.30
45849;DHT22;31567;54.600;9.842;2023-10-08T14:06:05;16.00;81.10
45849;DHT22;31567;54.600;9.842;2023-10-08T14:09:45;16.10;80.70
45849;DHT22;31567;54.600;9.842;2023-10-08T14:13:24;16.00;80.80
45849;DHT22;31567;54.600;9.842;2023-10-08T14:17:07;16.10;81.80
45849;DHT22;31567;54.600;9.842;2023-10-08T14:20:47;15.90;81.40
45849;DHT22;31567;54.600;9.842;2023-10-08T14:24:30;15.90;82.40
45849;DHT22;31567;54.600;9.842;2023-10-08T14:28:14;15.90;83.70
45849;DHT22;31567;54.600;9.842;2023-10-08T14:32:01;15.80;84.80
45849;DHT22;31567;54.600;9.842;2023-10-08T14:35:40;15.80;85.20
45849;DHT22;31567;54.600;9.842;2023-10-08T14:39:38;15.80;86.50
45849;DHT22;31567;54.600;9.842;2023-10-08T14:43:37;15.70;89.10
45849;DHT22;31567;54.600;9.842;2023-10-08T14:47:17;15.70;89.20
45849;DHT22;31567;54.600;9.842;2023-10-08T14:50:57;15.70;89.80
45849;DHT22;31567;54.600;9.842;2023-10-08T14:54:37;15.70;90.50
45849;DHT22;31567;54.600;9.842;2023-10-08T14:58:17;15.50;90.00
45849;DHT22;31567;54.600;9.842;2023-10-08T15:01:58;15.50;88.70
45849;DHT22;31567;54.600;9.842;2023-10-08T15:05:38;15.40;90.00
45849;DHT22;31567;54.600;9.842;2023-10-08T15:09:18;15.40;90.90
45849;DHT22;31567;54.600;9.842;2023-10-08T15:13:00;15.40;90.70
45849;DHT22;31567;54.600;9.842;2023-10-08T15:16:40;15.40;90.40
45849;DHT22;31567;54.600;9.842;2023-10-08T15:20:20;15.30;91.20
45849;DHT22;31567;54.600;9.842;2023-10-08T15:24:00;15.30;91.90
45849;DHT22;31567;54.600;9.842;2023-10-08T15:27:51;15.30;92.60
45849;DHT22;31567;54.600;9.842;2023-10-08T15:31:30;15.20;92.80
45849;DHT22;31567;54.600;9.842;2023-10-08T15:35:11;15.20;92.60
45849;DHT22;31567;54.600;9.842;2023-10-08T15:38:53;15.10;92.50
45849;DHT22;31567;54.600;9.842;2023-10-08T15:42:36;15.00;92.20
45849;DHT22;31567;54.600;9.842;2023-10-08T15:46:16;15.00;92.30
45849;DHT22;31567;54.600;9.842;2023-10-08T15:49:55;14.90;92.40
45849;DHT22;31567;54.600;9.842;2023-10-08T15:53:38;14.90;92.60
45849;DHT22;31567;54.600;9.842;2023-10-08T15:57:19;14.90;92.70
45849;DHT22;31567;54.600;9.842;2023-10-08T16:00:59;14.90;92.70
45849;DHT22;31567;54.600;9.842;2023-10-08T16:04:38;14.80;92.90
45849;DHT22;31567;54.600;9.842;2023-10-08T16:08:18;14.80;93.00
45849;DHT22;31567;54.600;9.842;2023-10-08T16:11:57;14.80;93.30
45849;DHT22;31567;54.600;9.842;2023-10-08T16:15:37;14.70;93.40
45849;DHT22;31567;54.600;9.842;2023-10-08T16:19:16;14.60;93.50
45849;DHT22;31567;54.600;9.842;2023-10-08T16:22:57;14.60;94.00
45849;DHT22;31567;54.600;9.842;2023-10-08T16:26:36;14.50;94.10
45849;DHT22;31567;54.600;9.842;2023-10-08T16:30:21;14.50;94.10
45849;DHT22;31567;54.600;9.842;2023-10-08T16:34:02;14.40;94.30
45849;DHT22;31567;54.600;9.842;2023-10-08T16:37:42;14.40;94.30
45849;DHT22;31567;54.600;9.842;2023-10-08T16:41:22;14.40;94.30
45849;DHT22;31567;54.600;9.842;2023-10-08T16:45:03;14.30;94.30
45849;DHT22;31567;54.600;9.842;2023-10-08T16:48:44;14.30;94.40
45849;DHT22;31567;54.600;9.842;2023-10-08T16:52:25;14.30;94.60
45849;DHT22;31567;54.600;9.842;2023-10-08T16:56:05;14.20;94.60
45849;DHT22;31567;54.600;9.842;2023-10-08T16:59:45;14.10;94.40
45849;DHT22;31567;54.600;9.842;2023-10-08T17:03:25;14.00;94.70
45849;DHT22;31567;54.600;9.842;2023-10-08T17:07:05;14.00;94.90
45849;DHT22;31567;54.600;9.842;2023-10-08T17:10:44;14.00;95.00
45849;DHT22;31567;54.600;9.842;2023-10-08T17:14:24;14.00;94.90
45849;DHT22;31567;54.600;9.842;2023-10-08T17:18:04;13.90;94.70
45849;DHT22;31567;54.600;9.842;2023-10-08T17:21:45;13.90;94.80
45849;DHT22;31567;54.600;9.842;2023-10-08T17:25:28;13.90;95.00
45849;DHT22;31567;54.600;9.842;2023-10-08T17:29:08;13.90;95.20
45849;DHT22;31567;54.600;9.842;2023-10-08T17:32:50;13.80;94.90
45849;DHT22;31567;54.600;9.842;2023-10-08T17:36:32;13.80;94.80
45849;DHT22;31567;54.600;9.842;2023-10-08T17:40:12;13.80;95.10
45849;DHT22;31567;54.600;9.842;2023-10-08T17:43:51;13.70;95.40
45849;DHT22;31567;54.600;9.842;2023-10-08T17:47:31;13.80;95.60
45849;DHT22;31567;54.600;9.842;2023-10-08T17:51:11;13.70;95.60
45849;DHT22;31567;54.600;9.842;2023-10-08T17:54:52;13.70;95.80
45849;DHT22;31567;54.600;9.842;2023-10-08T17:58:33;13.70;95.90
45849;DHT22;31567;54.600;9.842;2023-10-08T18:02:16;13.70;95.80
45849;DHT22;31567;54.600;9.842;2023-10-08T18:06:00;13.60;95.90
45849;DHT22;31567;54.600;9.842;2023-10-08T18:09:39;13.50;95.90
45849;DHT22;31567;54.600;9.842;2023-10-08T18:13:22;13.40;95.90
45849;DHT22;31567;54.600;9.842;2023-10-08T18:17:07;13.30;96.00
45849;DHT22;31567;54.600;9.842;2023-10-08T18:20:46;13.30;96.30
45849;DHT22;31567;54.600;9.842;2023-10-08T18:24:29;13.20;96.40
45849;DHT22;31567;54.600;9.842;2023-10-08T18:28:08;13.20;96.50
45849;DHT22;31567;54.600;9.842;2023-10-08T18:31:48;13.10;96.50
45849;DHT22;31567;54.600;9.842;2023-10-08T18:35:28;13.10;96.50
45849;DHT22;31567;54.600;9.842;2023-10-08T18:39:10;13.00;96.70
45849;DHT22;31567;54.600;9.842;2023-10-08T18:42:52;13.00;96.80
45849;DHT22;31567;54.600;9.842;2023-10-08T18:46:32;13.00;96.80
45849;DHT22;31567;54.600;9.842;2023-10-08T18:50:12;13.00;96.80
45849;DHT22;31567;54.600;9.842;2023-10-08T18:53:52;13.00;96.80
45849;DHT22;31567;54.600;9.842;2023-10-08T18:57:35;13.00;96.90
45849;DHT22;31567;54.600;9.842;2023-10-08T19:01:15;13.00;97.00
45849;DHT22;31567;54.600;9.842;2023-10-08T19:04:54;13.00;97.10
45849;DHT22;31567;54.600;9.842;2023-10-08T19:08:36;13.10;97.10
45849;DHT22;31567;54.600;9.842;2023-10-08T19:12:16;13.10;97.10
45849;DHT22;31567;54.600;9.842;2023-10-08T19:15:56;13.20;97.10
45849;DHT22;31567;54.600;9.842;2023-10-08T19:19:35;13.10;97.10
45849;DHT22;31567;54.600;9.842;2023-10-08T19:23:15;13.10;97.20
45849;DHT22;31567;54.600;9.842;2023-10-08T19:26:55;13.10;97.20
45849;DHT22;31567;54.600;9.842;2023-10-08T19:30:35;13.10;97.50
45849;DHT22;31567;54.600;9.842;2023-10-08T19:34:15;13.10;97.10
45849;DHT22;31567;54.600;9.842;2023-10-08T19:37:55;13.10;97.10
45849;DHT22;31567;54.600;9.842;2023-10-08T19:41:34;13.10;97.10
45849;DHT22;31567;54.600;9.842;2023-10-08T19:45:14;13.10;97.10
45849;DHT22;31567;54.600;9.842;2023-10-08T19:48:54;13.10;97.10
45849;DHT22;31567;54.600;9.842;2023-10-08T19:52:33;13.10;97.10
45849;DHT22;31567;54.600;9.842;2023-10-08T19:56:13;13.10;97.00
45849;DHT22;31567;54.600;9.842;2023-10-08T19:59:54;13.10;96.90
45849;DHT22;31567;54.600;9.842;2023-10-08T20:03:33;13.10;96.90
45849;DHT22;31567;54.600;9.842;2023-10-08T20:07:13;13.10;97.20
45849;DHT22;31567;54.600;9.842;2023-10-08T20:10:52;13.10;97.00
45849;DHT22;31567;54.600;9.842;2023-10-08T20:14:32;13.10;97.00
45849;DHT22;31567;54.600;9.842;2023-10-08T20:18:12;13.10;97.00
45849;DHT22;31567;54.600;9.842;2023-10-08T20:21:51;13.00;97.10
45849;DHT22;31567;54.600;9.842;2023-10-08T20:25:35;13.10;97.10
45849;DHT22;31567;54.600;9.842;2023-10-08T20:29:16;13.00;97.10
45849;DHT22;31567;54.600;9.842;2023-10-08T20:32:57;13.10;97.20
45849;DHT22;31567;54.600;9.842;2023-10-08T20:36:38;13.10;97.30
45849;DHT22;31567;54.600;9.842;2023-10-08T20:40:19;13.20;97.40
45849;DHT22;31567;54.600;9.842;2023-10-08T20:44:04;13.10;97.30
45849;DHT22;31567;54.600;9.842;2023-10-08T20:47:44;13.20;97.40
45849;DHT22;31567;54.600;9.842;2023-10-08T20:51:24;13.20;97.40
45849;DHT22;31567;54.600;9.842;2023-10-08T20:55:03;13.30;97.40
45849;DHT22;31567;54.600;9.842;2023-10-08T20:58:43;13.30;97.40
45849;DHT22;31567;54.600;9.842;2023-10-08T21:02:23;13.30;97.50
45849;DHT22;31567;54.600;9.842;2023-10-08T21:06:02;13.30;97.70
45849;DHT22;31567;54.600;9.842;2023-10-08T21:09:42;13.20;97.40
45849;DHT22;31567;54.600;9.842;2023-10-08T21:13:22;13.20;97.80
45849;DHT22;31567;54.600;9.842;2023-10-08T21:17:03;13.30;97.60
45849;DHT22;31567;54.600;9.842;2023-10-08T21:20:47;13.30;97.80
45849;DHT22;31567;54.600;9.842;2023-10-08T21:24:27;13.20;97.60
45849;DHT22;31567;54.600;9.842;2023-10-08T21:28:06;13.10;97.50
45849;DHT22;31567;54.600;9.842;2023-10-08T21:31:48;13.10;97.60
45849;DHT22;31567;54.600;9.842;2023-10-08T21:35:27;12.90;97.40
45849;DHT22;31567;54.600;9.842;2023-10-08T21:39:11;12.90;97.30
45849;DHT22;31567;54.600;9.842;2023-10-08T21:42:51;12.80;97.20
45849;DHT22;31567;54.600;9.842;2023-10-08T21:46:31;12.80;97.40
45849;DHT22;31567;54.600;9.842;2023-10-08T21:50:12;12.80;97.60
45849;DHT22;31567;54.600;9.842;2023-10-08T21:53:52;12.70;97.20
45849;DHT22;31567;54.600;9.842;2023-10-08T21:57:32;12.70;97.10
45849;DHT22;31567;54.600;9.842;2023-10-08T22:01:13;12.60;97.30
45849;DHT22;31567;54.600;9.842;2023-10-08T22:04:57;12.60;97.70
45849;DHT22;31567;54.600;9.842;2023-10-08T22:08:37;12.60;98.00
45849;DHT22;31567;54.600;9.842;2023-10-08T22:12:17;12.60;98.20
45849;DHT22;31567;54.600;9.842;2023-10-08T22:15:57;12.50;98.40
45849;DHT22;31567;54.600;9.842;2023-10-08T22:19:53;12.50;98.50
45849;DHT22;31567;54.600;9.842;2023-10-08T22:23:35;12.50;98.60
45849;DHT22;31567;54.600;9.842;2023-10-08T22:27:17;12.40;98.80
45849;DHT22;31567;54.600;9.842;2023-10-08T22:31:12;12.40;99.10
45849;DHT22;31567;54.600;9.842;2023-10-08T22:34:54;12.40;99.20
45849;DHT22;31567;54.600;9.842;2023-10-08T22:38:41;12.40;99.30
45849;DHT22;31567;54.600;9.842;2023-10-08T22:42:22;12.30;99.40
45849;DHT22;31567;54.600;9.842;2023-10-08T22:46:06;12.30;99.60
45849;DHT22;31567;54.600;9.842;2023-10-08T22:49:47;12.30;99.80
45849;DHT22;31567;54.600;9.842;2023-10-08T22:53:33;12.30;99.90
45849;DHT22;31567;54.600;9.842;2023-10-08T22:57:15;12.40;99.90
45849;DHT22;31567;54.600;9.842;2023-10-08T23:00:56;12.40;99.90
45849;DHT22;31567;54.600;9.842;2023-10-08T23:04:36;12.40;99.90
45849;DHT22;31567;54.600;9.842;2023-10-08T23:08:16;12.40;99.90
45849;DHT22;31567;54.600;9.842;2023-10-08T23:11:56;12.40;99.90
45849;DHT22;31567;54.600;9.842;2023-10-08T23:15:36;12.40;99.90
45849;DHT22;31567;54.600;9.842;2023-10-08T23:19:23;12.40;99.90
45849;DHT22;31567;54.600;9.842;2023-10-08T23:23:02;12.30;99.90
45849;DHT22;31567;54.600;9.842;2023-10-08T23:26:45;12.30;99.90
45849;DHT22;31567;54.600;9.842;2023-10-08T23:30:25;12.20;99.90